Hauptseite
METAR-TAF:

METAR-TAF

Flughäfen :

Nevers, Frankreich

Fourchambault

Breite: 47-00N, Länge: 003-06E, Höhe: 180 m

Beobachtung

Neuester Wetterbericht von vor 44 Minuten, um 08:30 UTC
Wind 4 kt aus Südwest, variierte zwischen Süd und West/Südwest
Temperatur 15°C
Luftfeuchtigkeit 100%
Luftdruck 1020 hPa
Sichtweite: 8000 m
Leichtregen

METAR: LFQG 230830Z AUTO 23004KT 190V250 8000 -RA FEW007/// SCT066/// OVC082/// ///CB 15/15 Q1020

Zeit: 11:14 (09:14 UTC)


TAF: fehlend

Wetterbeobachtungen und Prognosen von mehr als 4000 Flughäfen (METAR und TAF Bericht).

Die verfügbaren Stationen werden durch gelbe und rote Markierungen auf der Karte dargestellt.

Führen Sie die Maus auf sie, um den Namen der Station zu sehen.

Darauf klicken, um die Beobachtung von Wetterbeobachtungen und Prognosen zu sehen.

Um die Karte zu ändern : klicken Sie auf den grünen Tasten mit einem schwarzen Kreuz Zum Vergrößern, auf den grünen Button mit einem Gedankenstrich zu verkleinern, oder auf die grünen Pfeile für benachbarte Karten.


METAR-TAF: